createdAt,value
2023-05-22T00:06:55.281Z,15.33
2023-05-22T00:21:56.889Z,15.21
2023-05-22T00:36:58.542Z,14.65
2023-05-22T00:52:00.147Z,14.04
2023-05-22T01:07:03.213Z,14.17
2023-05-22T01:22:04.967Z,14.33
2023-05-22T01:37:07.268Z,14.31
2023-05-22T01:52:10.239Z,14.26
2023-05-22T02:07:12.562Z,14.18
2023-05-22T02:22:16.231Z,13.82
2023-05-22T02:37:18.179Z,13.63
2023-05-22T02:52:19.853Z,13.88
2023-05-22T03:07:21.659Z,13.47
2023-05-22T03:22:23.667Z,13.33
2023-05-22T03:37:25.866Z,13.13
2023-05-22T03:52:27.654Z,13.16
2023-05-22T04:07:29.357Z,13.99
2023-05-22T04:22:31.125Z,15.08
2023-05-22T04:37:32.840Z,16.91
2023-05-22T04:52:34.489Z,17.84
2023-05-22T05:07:36.933Z,19.57
2023-05-22T05:22:39.973Z,20.46
2023-05-22T05:37:42.362Z,21.34
2023-05-22T05:52:44.491Z,22.78
2023-05-22T06:07:50.686Z,24.56
2023-05-22T06:22:54.278Z,23.13
2023-05-22T06:37:56.090Z,24.17
2023-05-22T06:52:59.389Z,24.27
2023-05-22T07:08:01.836Z,24.95
2023-05-22T07:23:04.425Z,25.03
2023-05-22T07:38:06.712Z,26.10
2023-05-22T07:53:09.319Z,25.76
2023-05-22T08:08:14.000Z,27.43
2023-05-22T08:23:15.631Z,27.49
2023-05-22T08:38:17.914Z,26.57
2023-05-22T08:53:21.399Z,26.93
2023-05-22T09:08:23.146Z,27.26
2023-05-22T09:23:25.817Z,27.31
2023-05-22T09:38:27.471Z,28.03
2023-05-22T09:53:29.135Z,28.01
2023-05-22T10:08:30.805Z,27.29
2023-05-22T10:23:32.446Z,27.27
2023-05-22T10:38:34.083Z,28.48
2023-05-22T10:53:35.791Z,29.62
2023-05-22T11:08:38.122Z,28.08
2023-05-22T11:23:39.769Z,29.26
2023-05-22T11:38:41.592Z,29.75
2023-05-22T11:53:43.250Z,29.89
2023-05-22T12:08:44.977Z,30.50
2023-05-22T12:23:46.600Z,27.09
2023-05-22T12:38:48.266Z,25.07
2023-05-22T12:53:49.901Z,25.72
2023-05-22T13:08:51.548Z,26.37
2023-05-22T13:23:53.176Z,25.08
2023-05-22T14:10:21.188Z,25.26
2023-05-22T14:25:22.861Z,25.09
2023-05-22T14:40:24.566Z,24.61
2023-05-22T14:55:28.322Z,24.28
2023-05-22T15:10:30.101Z,23.83
2023-05-22T15:25:36.465Z,25.00
2023-05-22T15:40:38.129Z,25.25
2023-05-22T15:55:39.912Z,25.75
2023-05-22T16:10:42.283Z,25.49
2023-05-22T16:25:47.973Z,24.46
2023-05-22T16:40:51.413Z,22.76
2023-05-22T16:55:53.196Z,21.96
2023-05-22T17:10:54.840Z,20.29
2023-05-22T17:25:57.492Z,19.13
2023-05-22T17:41:00.926Z,18.34
2023-05-22T17:56:02.569Z,17.72
2023-05-22T18:11:05.307Z,16.83
2023-05-22T18:26:06.973Z,16.65
2023-05-22T18:41:08.684Z,16.40
2023-05-22T18:56:10.440Z,16.03
2023-05-22T19:11:12.099Z,15.87
2023-05-22T19:42:02.736Z,15.84
2023-05-22T19:57:04.525Z,15.72
2023-05-22T20:12:06.305Z,15.24
2023-05-22T20:27:07.962Z,14.63
2023-05-22T20:42:09.616Z,14.72
2023-05-22T20:57:11.304Z,14.69
2023-05-22T21:12:12.973Z,14.84
2023-05-22T21:27:14.627Z,15.17
2023-05-22T21:42:16.536Z,15.30
2023-05-22T21:57:18.138Z,15.53
2023-05-22T22:12:19.803Z,15.65
2023-05-22T22:27:21.466Z,15.54
2023-05-22T22:42:23.203Z,15.33
2023-05-22T22:57:24.950Z,15.18
2023-05-22T23:12:26.574Z,15.10
2023-05-22T23:27:28.374Z,15.03
2023-05-22T23:42:30.033Z,14.91
2023-05-22T23:57:31.642Z,14.84
